sensor_id;sensor_type;location;lat;lon;timestamp;temperature;humidity
67354;SHT30;54238;52.278;21.056;2022-07-23T00:02:02;25.36;52.25
67354;SHT30;54238;52.278;21.056;2022-07-23T00:04:31;25.31;52.56
67354;SHT30;54238;52.278;21.056;2022-07-23T00:07:01;25.27;52.46
67354;SHT30;54238;52.278;21.056;2022-07-23T00:09:30;25.22;52.51
67354;SHT30;54238;52.278;21.056;2022-07-23T00:12:00;25.20;52.48
67354;SHT30;54238;52.278;21.056;2022-07-23T00:14:29;25.20;52.43
67354;SHT30;54238;52.278;21.056;2022-07-23T00:16:59;25.17;52.54
67354;SHT30;54238;52.278;21.056;2022-07-23T00:19:31;25.16;52.87
67354;SHT30;54238;52.278;21.056;2022-07-23T00:22:04;25.10;53.06
67354;SHT30;54238;52.278;21.056;2022-07-23T00:24:35;25.06;53.34
67354;SHT30;54238;52.278;21.056;2022-07-23T00:27:04;25.01;53.45
67354;SHT30;54238;52.278;21.056;2022-07-23T00:29:33;24.98;53.41
67354;SHT30;54238;52.278;21.056;2022-07-23T00:32:03;24.93;53.53
67354;SHT30;54238;52.278;21.056;2022-07-23T00:34:32;24.88;53.57
67354;SHT30;54238;52.278;21.056;2022-07-23T00:37:01;24.84;53.72
67354;SHT30;54238;52.278;21.056;2022-07-23T00:39:28;24.82;53.77
67354;SHT30;54238;52.278;21.056;2022-07-23T00:41:58;24.80;53.86
67354;SHT30;54238;52.278;21.056;2022-07-23T00:44:26;24.77;53.93
67354;SHT30;54238;52.278;21.056;2022-07-23T00:46:57;24.78;53.97
67354;SHT30;54238;52.278;21.056;2022-07-23T00:49:26;24.78;53.94
67354;SHT30;54238;52.278;21.056;2022-07-23T00:51:56;24.77;54.17
67354;SHT30;54238;52.278;21.056;2022-07-23T00:54:29;24.72;54.41
67354;SHT30;54238;52.278;21.056;2022-07-23T00:57:01;24.68;54.40
67354;SHT30;54238;52.278;21.056;2022-07-23T00:59:30;24.64;54.66
67354;SHT30;54238;52.278;21.056;2022-07-23T01:02:00;24.58;55.05
67354;SHT30;54238;52.278;21.056;2022-07-23T01:04:29;24.52;55.40
67354;SHT30;54238;52.278;21.056;2022-07-23T01:06:56;24.47;55.77
67354;SHT30;54238;52.278;21.056;2022-07-23T01:09:31;24.40;56.03
67354;SHT30;54238;52.278;21.056;2022-07-23T01:12:00;24.35;56.26
67354;SHT30;54238;52.278;21.056;2022-07-23T01:14:28;24.30;56.45
67354;SHT30;54238;52.278;21.056;2022-07-23T01:16:57;24.26;56.49
67354;SHT30;54238;52.278;21.056;2022-07-23T01:19:26;24.22;56.56
67354;SHT30;54238;52.278;21.056;2022-07-23T01:21:57;24.17;56.68
67354;SHT30;54238;52.278;21.056;2022-07-23T01:24:31;24.14;57.27
67354;SHT30;54238;52.278;21.056;2022-07-23T01:26:58;24.10;57.63
67354;SHT30;54238;52.278;21.056;2022-07-23T01:29:28;24.05;57.76
67354;SHT30;54238;52.278;21.056;2022-07-23T01:31:57;24.02;57.76
67354;SHT30;54238;52.278;21.056;2022-07-23T01:34:31;23.98;57.91
67354;SHT30;54238;52.278;21.056;2022-07-23T01:36:58;23.95;58.42
67354;SHT30;54238;52.278;21.056;2022-07-23T01:39:27;23.91;58.75
67354;SHT30;54238;52.278;21.056;2022-07-23T01:41:54;23.86;58.90
67354;SHT30;54238;52.278;21.056;2022-07-23T01:44:26;23.82;58.80
67354;SHT30;54238;52.278;21.056;2022-07-23T01:46:55;23.78;58.80
67354;SHT30;54238;52.278;21.056;2022-07-23T01:49:23;23.75;59.18
67354;SHT30;54238;52.278;21.056;2022-07-23T01:51:52;23.75;59.38
67354;SHT30;54238;52.278;21.056;2022-07-23T01:54:28;23.75;59.44
67354;SHT30;54238;52.278;21.056;2022-07-23T01:57:00;23.73;59.46
67354;SHT30;54238;52.278;21.056;2022-07-23T01:59:30;23.74;59.53
67354;SHT30;54238;52.278;21.056;2022-07-23T02:02:00;23.74;59.33
67354;SHT30;54238;52.278;21.056;2022-07-23T02:04:27;23.75;59.22
67354;SHT30;54238;52.278;21.056;2022-07-23T02:06:54;23.75;59.39
67354;SHT30;54238;52.278;21.056;2022-07-23T02:09:24;23.75;60.16
67354;SHT30;54238;52.278;21.056;2022-07-23T02:11:53;23.77;60.96
67354;SHT30;54238;52.278;21.056;2022-07-23T02:14:25;23.81;61.32
67354;SHT30;54238;52.278;21.056;2022-07-23T02:16:55;23.82;61.26
67354;SHT30;54238;52.278;21.056;2022-07-23T02:19:22;23.82;61.41
67354;SHT30;54238;52.278;21.056;2022-07-23T02:21:52;23.83;61.25
67354;SHT30;54238;52.278;21.056;2022-07-23T02:24:20;23.85;60.99
67354;SHT30;54238;52.278;21.056;2022-07-23T02:26:49;23.86;60.56
67354;SHT30;54238;52.278;21.056;2022-07-23T02:29:16;23.86;60.43
67354;SHT30;54238;52.278;21.056;2022-07-23T02:31:46;23.86;60.50
67354;SHT30;54238;52.278;21.056;2022-07-23T02:34:15;23.83;60.61
67354;SHT30;54238;52.278;21.056;2022-07-23T02:36:44;23.82;60.78
67354;SHT30;54238;52.278;21.056;2022-07-23T02:39:13;23.79;60.93
67354;SHT30;54238;52.278;21.056;2022-07-23T02:41:40;23.80;60.91
67354;SHT30;54238;52.278;21.056;2022-07-23T02:44:07;23.80;61.05
67354;SHT30;54238;52.278;21.056;2022-07-23T02:46:34;23.80;61.04
67354;SHT30;54238;52.278;21.056;2022-07-23T02:49:03;23.78;60.88
67354;SHT30;54238;52.278;21.056;2022-07-23T02:51:31;23.76;60.93
67354;SHT30;54238;52.278;21.056;2022-07-23T02:53:58;23.73;61.05
67354;SHT30;54238;52.278;21.056;2022-07-23T02:56:25;23.70;61.14
67354;SHT30;54238;52.278;21.056;2022-07-23T02:58:57;23.70;61.14
67354;SHT30;54238;52.278;21.056;2022-07-23T03:01:24;23.67;61.19
67354;SHT30;54238;52.278;21.056;2022-07-23T03:03:51;23.64;61.24
67354;SHT30;54238;52.278;21.056;2022-07-23T03:06:20;23.65;61.27
67354;SHT30;54238;52.278;21.056;2022-07-23T03:08:47;23.65;61.15
67354;SHT30;54238;52.278;21.056;2022-07-23T03:11:14;23.65;61.14
67354;SHT30;54238;52.278;21.056;2022-07-23T03:13:45;23.63;61.16
67354;SHT30;54238;52.278;21.056;2022-07-23T03:16:17;23.62;60.95
67354;SHT30;54238;52.278;21.056;2022-07-23T03:18:46;23.60;60.86
67354;SHT30;54238;52.278;21.056;2022-07-23T03:21:13;23.60;60.87
67354;SHT30;54238;52.278;21.056;2022-07-23T03:23:43;23.60;61.00
67354;SHT30;54238;52.278;21.056;2022-07-23T03:26:13;23.57;61.17
67354;SHT30;54238;52.278;21.056;2022-07-23T03:28:42;23.53;61.16
67354;SHT30;54238;52.278;21.056;2022-07-23T03:31:12;23.49;61.31
67354;SHT30;54238;52.278;21.056;2022-07-23T03:33:41;23.48;61.48
67354;SHT30;54238;52.278;21.056;2022-07-23T03:36:11;23.46;61.47
67354;SHT30;54238;52.278;21.056;2022-07-23T03:38:38;23.47;61.27
67354;SHT30;54238;52.278;21.056;2022-07-23T03:41:11;23.45;61.11
67354;SHT30;54238;52.278;21.056;2022-07-23T03:43:41;23.45;61.13
67354;SHT30;54238;52.278;21.056;2022-07-23T03:46:08;23.43;61.12
67354;SHT30;54238;52.278;21.056;2022-07-23T03:48:38;23.43;61.13
67354;SHT30;54238;52.278;21.056;2022-07-23T03:51:04;23.42;61.17
67354;SHT30;54238;52.278;21.056;2022-07-23T03:53:32;23.41;61.17
67354;SHT30;54238;52.278;21.056;2022-07-23T03:56:01;23.41;61.28
67354;SHT30;54238;52.278;21.056;2022-07-23T03:58:30;23.41;61.23
67354;SHT30;54238;52.278;21.056;2022-07-23T04:01:02;23.39;61.33
67354;SHT30;54238;52.278;21.056;2022-07-23T04:03:31;23.39;61.46
67354;SHT30;54238;52.278;21.056;2022-07-23T04:05:58;23.37;61.65
67354;SHT30;54238;52.278;21.056;2022-07-23T04:08:32;23.37;61.89
67354;SHT30;54238;52.278;21.056;2022-07-23T04:11:02;23.37;61.93
67354;SHT30;54238;52.278;21.056;2022-07-23T04:13:29;23.36;62.13
67354;SHT30;54238;52.278;21.056;2022-07-23T04:15:59;23.34;62.29
67354;SHT30;54238;52.278;21.056;2022-07-23T04:18:27;23.33;62.19
67354;SHT30;54238;52.278;21.056;2022-07-23T04:20:58;23.33;62.28
67354;SHT30;54238;52.278;21.056;2022-07-23T04:23:30;23.33;62.35
67354;SHT30;54238;52.278;21.056;2022-07-23T04:25:59;23.36;62.24
67354;SHT30;54238;52.278;21.056;2022-07-23T04:28:29;23.39;62.21
67354;SHT30;54238;52.278;21.056;2022-07-23T04:30:58;23.43;62.20
67354;SHT30;54238;52.278;21.056;2022-07-23T04:33:25;23.47;62.14
67354;SHT30;54238;52.278;21.056;2022-07-23T04:35:56;23.47;61.81
67354;SHT30;54238;52.278;21.056;2022-07-23T04:38:25;23.44;61.62
67354;SHT30;54238;52.278;21.056;2022-07-23T04:40:54;23.42;61.61
67354;SHT30;54238;52.278;21.056;2022-07-23T04:43:23;23.41;61.54
67354;SHT30;54238;52.278;21.056;2022-07-23T04:45:50;23.40;61.50
67354;SHT30;54238;52.278;21.056;2022-07-23T04:48:19;23.39;61.50
67354;SHT30;54238;52.278;21.056;2022-07-23T04:50:46;23.42;61.53
67354;SHT30;54238;52.278;21.056;2022-07-23T04:53:13;23.43;61.60
67354;SHT30;54238;52.278;21.056;2022-07-23T04:55:44;23.43;61.57
67354;SHT30;54238;52.278;21.056;2022-07-23T04:58:14;23.47;61.64
67354;SHT30;54238;52.278;21.056;2022-07-23T05:00:41;23.50;61.55
67354;SHT30;54238;52.278;21.056;2022-07-23T05:03:13;23.57;61.50
67354;SHT30;54238;52.278;21.056;2022-07-23T05:05:40;23.62;61.34
67354;SHT30;54238;52.278;21.056;2022-07-23T05:08:09;23.68;61.23
67354;SHT30;54238;52.278;21.056;2022-07-23T05:10:36;23.72;61.04
67354;SHT30;54238;52.278;21.056;2022-07-23T05:13:06;23.78;61.02
67354;SHT30;54238;52.278;21.056;2022-07-23T05:15:35;23.82;60.96
67354;SHT30;54238;52.278;21.056;2022-07-23T05:18:02;23.87;60.76
67354;SHT30;54238;52.278;21.056;2022-07-23T05:20:30;23.92;60.88
67354;SHT30;54238;52.278;21.056;2022-07-23T05:23:00;24.00;60.81
67354;SHT30;54238;52.278;21.056;2022-07-23T05:25:29;24.08;60.64
67354;SHT30;54238;52.278;21.056;2022-07-23T05:27:56;24.17;60.41
67354;SHT30;54238;52.278;21.056;2022-07-23T05:30:25;24.26;60.24
67354;SHT30;54238;52.278;21.056;2022-07-23T05:32:58;24.34;60.09
67354;SHT30;54238;52.278;21.056;2022-07-23T05:35:34;24.42;59.82
67354;SHT30;54238;52.278;21.056;2022-07-23T05:38:01;24.49;59.63
67354;SHT30;54238;52.278;21.056;2022-07-23T05:40:28;24.56;59.38
67354;SHT30;54238;52.278;21.056;2022-07-23T05:42:58;24.60;59.11
67354;SHT30;54238;52.278;21.056;2022-07-23T05:45:28;24.68;59.20
67354;SHT30;54238;52.278;21.056;2022-07-23T05:47:54;24.76;58.89
67354;SHT30;54238;52.278;21.056;2022-07-23T05:50:26;24.85;58.52
67354;SHT30;54238;52.278;21.056;2022-07-23T05:52:53;24.94;58.27
67354;SHT30;54238;52.278;21.056;2022-07-23T05:55:23;25.04;58.03
67354;SHT30;54238;52.278;21.056;2022-07-23T05:58:00;25.15;57.66
67354;SHT30;54238;52.278;21.056;2022-07-23T06:00:30;25.23;57.67
67354;SHT30;54238;52.278;21.056;2022-07-23T06:02:57;25.34;57.55
67354;SHT30;54238;52.278;21.056;2022-07-23T06:05:29;25.44;57.45
67354;SHT30;54238;52.278;21.056;2022-07-23T06:07:56;25.54;57.08
67354;SHT30;54238;52.278;21.056;2022-07-23T06:10:30;25.63;56.35
67354;SHT30;54238;52.278;21.056;2022-07-23T06:13:02;25.71;55.96
67354;SHT30;54238;52.278;21.056;2022-07-23T06:15:29;25.77;55.47
67354;SHT30;54238;52.278;21.056;2022-07-23T06:17:56;25.83;55.01
67354;SHT30;54238;52.278;21.056;2022-07-23T06:20:23;25.88;54.88
67354;SHT30;54238;52.278;21.056;2022-07-23T06:22:55;25.93;54.77
67354;SHT30;54238;52.278;21.056;2022-07-23T06:25:22;25.94;55.15
67354;SHT30;54238;52.278;21.056;2022-07-23T06:27:51;26.00;54.96
67354;SHT30;54238;52.278;21.056;2022-07-23T06:30:20;26.10;54.67
67354;SHT30;54238;52.278;21.056;2022-07-23T06:32:49;26.23;54.74
67354;SHT30;54238;52.278;21.056;2022-07-23T06:35:21;26.37;54.69
67354;SHT30;54238;52.278;21.056;2022-07-23T06:37:49;26.51;54.29
67354;SHT30;54238;52.278;21.056;2022-07-23T06:40:21;26.63;53.62
67354;SHT30;54238;52.278;21.056;2022-07-23T06:42:48;26.72;53.20
67354;SHT30;54238;52.278;21.056;2022-07-23T06:45:17;26.82;53.06
67354;SHT30;54238;52.278;21.056;2022-07-23T06:47:47;26.93;52.39
67354;SHT30;54238;52.278;21.056;2022-07-23T06:50:17;27.02;52.14
67354;SHT30;54238;52.278;21.056;2022-07-23T06:52:46;27.11;51.64
67354;SHT30;54238;52.278;21.056;2022-07-23T06:55:16;27.20;51.34
67354;SHT30;54238;52.278;21.056;2022-07-23T06:57:47;27.30;51.44
67354;SHT30;54238;52.278;21.056;2022-07-23T07:00:16;27.40;50.66
67354;SHT30;54238;52.278;21.056;2022-07-23T07:02:43;27.45;50.47
67354;SHT30;54238;52.278;21.056;2022-07-23T07:05:12;27.54;50.35
67354;SHT30;54238;52.278;21.056;2022-07-23T07:07:39;27.59;49.28
67354;SHT30;54238;52.278;21.056;2022-07-23T07:10:11;27.65;49.38
67354;SHT30;54238;52.278;21.056;2022-07-23T07:12:38;27.73;49.47
67354;SHT30;54238;52.278;21.056;2022-07-23T07:15:10;27.84;49.30
67354;SHT30;54238;52.278;21.056;2022-07-23T07:17:37;27.94;48.47
67354;SHT30;54238;52.278;21.056;2022-07-23T07:20:06;28.02;48.08
67354;SHT30;54238;52.278;21.056;2022-07-23T07:22:36;28.10;48.08
67354;SHT30;54238;52.278;21.056;2022-07-23T07:25:07;28.21;48.05
67354;SHT30;54238;52.278;21.056;2022-07-23T07:27:35;28.33;48.07
67354;SHT30;54238;52.278;21.056;2022-07-23T07:30:07;28.47;48.12
67354;SHT30;54238;52.278;21.056;2022-07-23T07:32:35;28.57;47.58
67354;SHT30;54238;52.278;21.056;2022-07-23T07:35:03;28.66;47.55
67354;SHT30;54238;52.278;21.056;2022-07-23T07:37:33;28.73;47.23
67354;SHT30;54238;52.278;21.056;2022-07-23T07:40:03;28.78;47.07
67354;SHT30;54238;52.278;21.056;2022-07-23T07:42:31;28.79;46.91
67354;SHT30;54238;52.278;21.056;2022-07-23T07:44:59;28.80;47.08
67354;SHT30;54238;52.278;21.056;2022-07-23T07:47:26;28.89;47.38
67354;SHT30;54238;52.278;21.056;2022-07-23T07:49:53;28.98;46.80
67354;SHT30;54238;52.278;21.056;2022-07-23T07:52:25;29.06;46.72
67354;SHT30;54238;52.278;21.056;2022-07-23T07:54:52;29.17;45.96
67354;SHT30;54238;52.278;21.056;2022-07-23T07:57:23;29.26;46.03
67354;SHT30;54238;52.278;21.056;2022-07-23T07:59:53;29.31;44.92
67354;SHT30;54238;52.278;21.056;2022-07-23T08:02:20;29.32;44.90
67354;SHT30;54238;52.278;21.056;2022-07-23T08:04:47;29.37;44.99
67354;SHT30;54238;52.278;21.056;2022-07-23T08:07:15;29.45;44.87
67354;SHT30;54238;52.278;21.056;2022-07-23T08:09:42;29.52;44.57
67354;SHT30;54238;52.278;21.056;2022-07-23T08:12:12;29.55;44.66
67354;SHT30;54238;52.278;21.056;2022-07-23T08:14:38;29.62;44.72
67354;SHT30;54238;52.278;21.056;2022-07-23T08:17:09;29.64;44.27
67354;SHT30;54238;52.278;21.056;2022-07-23T08:19:41;29.65;44.18
67354;SHT30;54238;52.278;21.056;2022-07-23T08:22:10;29.67;44.28
67354;SHT30;54238;52.278;21.056;2022-07-23T08:24:39;29.72;44.29
67354;SHT30;54238;52.278;21.056;2022-07-23T08:27:08;29.75;43.76
67354;SHT30;54238;52.278;21.056;2022-07-23T08:29:37;29.77;43.68
67354;SHT30;54238;52.278;21.056;2022-07-23T08:32:06;29.75;43.03
67354;SHT30;54238;52.278;21.056;2022-07-23T08:34:36;29.75;43.23
67354;SHT30;54238;52.278;21.056;2022-07-23T08:37:03;29.75;43.63
67354;SHT30;54238;52.278;21.056;2022-07-23T08:39:32;29.82;43.73
67354;SHT30;54238;52.278;21.056;2022-07-23T08:42:04;29.94;43.08
67354;SHT30;54238;52.278;21.056;2022-07-23T08:44:31;30.00;42.64
67354;SHT30;54238;52.278;21.056;2022-07-23T08:47:02;30.05;42.87
67354;SHT30;54238;52.278;21.056;2022-07-23T08:49:34;30.12;42.67
67354;SHT30;54238;52.278;21.056;2022-07-23T08:52:06;30.18;41.41
67354;SHT30;54238;52.278;21.056;2022-07-23T08:54:35;30.20;40.97
67354;SHT30;54238;52.278;21.056;2022-07-23T08:57:06;30.21;40.89
67354;SHT30;54238;52.278;21.056;2022-07-23T08:59:35;30.25;40.89
67354;SHT30;54238;52.278;21.056;2022-07-23T09:02:09;30.32;40.87
67354;SHT30;54238;52.278;21.056;2022-07-23T09:04:36;30.41;40.70
67354;SHT30;54238;52.278;21.056;2022-07-23T09:07:06;30.50;40.82
67354;SHT30;54238;52.278;21.056;2022-07-23T09:09:33;30.63;40.42
67354;SHT30;54238;52.278;21.056;2022-07-23T09:12:06;30.71;40.28
67354;SHT30;54238;52.278;21.056;2022-07-23T09:14:45;30.81;40.18
67354;SHT30;54238;52.278;21.056;2022-07-23T09:17:16;30.95;40.26
67354;SHT30;54238;52.278;21.056;2022-07-23T09:19:45;31.15;39.79
67354;SHT30;54238;52.278;21.056;2022-07-23T09:27:59;31.71;37.75
67354;SHT30;54238;52.278;21.056;2022-07-23T09:30:30;31.91;37.37
67354;SHT30;54238;52.278;21.056;2022-07-23T09:38:21;32.20;35.88
67354;SHT30;54238;52.278;21.056;2022-07-23T09:41:09;32.30;36.02
67354;SHT30;54238;52.278;21.056;2022-07-23T09:43:37;32.40;35.98
67354;SHT30;54238;52.278;21.056;2022-07-23T09:46:17;32.57;36.07
67354;SHT30;54238;52.278;21.056;2022-07-23T09:48:55;32.77;35.91
67354;SHT30;54238;52.278;21.056;2022-07-23T09:51:23;32.80;35.30
67354;SHT30;54238;52.278;21.056;2022-07-23T09:53:57;32.84;35.22
67354;SHT30;54238;52.278;21.056;2022-07-23T09:56:27;32.88;35.85
67354;SHT30;54238;52.278;21.056;2022-07-23T09:58:57;33.04;35.71
67354;SHT30;54238;52.278;21.056;2022-07-23T10:01:44;33.20;34.97
67354;SHT30;54238;52.278;21.056;2022-07-23T10:04:14;33.25;34.48
67354;SHT30;54238;52.278;21.056;2022-07-23T10:06:41;33.33;34.75
67354;SHT30;54238;52.278;21.056;2022-07-23T10:09:13;33.54;34.28
67354;SHT30;54238;52.278;21.056;2022-07-23T10:11:48;33.71;33.87
67354;SHT30;54238;52.278;21.056;2022-07-23T10:14:21;33.88;33.81
67354;SHT30;54238;52.278;21.056;2022-07-23T10:16:48;34.09;33.43
67354;SHT30;54238;52.278;21.056;2022-07-23T10:19:20;34.25;32.82
67354;SHT30;54238;52.278;21.056;2022-07-23T10:21:56;34.34;32.32
67354;SHT30;54238;52.278;21.056;2022-07-23T10:27:42;34.76;32.32
67354;SHT30;54238;52.278;21.056;2022-07-23T10:30:36;34.85;32.08
67354;SHT30;54238;52.278;21.056;2022-07-23T10:36:15;35.33;31.66
67354;SHT30;54238;52.278;21.056;2022-07-23T10:39:07;35.53;31.11
67354;SHT30;54238;52.278;21.056;2022-07-23T10:41:46;35.65;30.53
67354;SHT30;54238;52.278;21.056;2022-07-23T10:44:17;35.75;30.22
67354;SHT30;54238;52.278;21.056;2022-07-23T10:49:43;35.98;30.96
67354;SHT30;54238;52.278;21.056;2022-07-23T10:52:19;36.27;30.07
67354;SHT30;54238;52.278;21.056;2022-07-23T10:57:47;36.49;29.58
67354;SHT30;54238;52.278;21.056;2022-07-23T11:00:20;36.73;29.69
67354;SHT30;54238;52.278;21.056;2022-07-23T11:02:51;36.89;28.69
67354;SHT30;54238;52.278;21.056;2022-07-23T11:06:12;36.56;28.82
67354;SHT30;54238;52.278;21.056;2022-07-23T11:08:45;36.64;28.99
67354;SHT30;54238;52.278;21.056;2022-07-23T11:11:12;36.83;29.18
67354;SHT30;54238;52.278;21.056;2022-07-23T11:13:44;37.00;28.28
67354;SHT30;54238;52.278;21.056;2022-07-23T11:16:15;37.03;28.48
67354;SHT30;54238;52.278;21.056;2022-07-23T11:24:02;37.22;28.50
67354;SHT30;54238;52.278;21.056;2022-07-23T11:26:51;37.28;28.23
67354;SHT30;54238;52.278;21.056;2022-07-23T11:34:47;37.19;27.52
67354;SHT30;54238;52.278;21.056;2022-07-23T11:40:09;37.58;27.49
67354;SHT30;54238;52.278;21.056;2022-07-23T11:42:55;37.76;27.71
67354;SHT30;54238;52.278;21.056;2022-07-23T11:45:35;37.88;27.08
67354;SHT30;54238;52.278;21.056;2022-07-23T11:48:08;37.82;26.81
67354;SHT30;54238;52.278;21.056;2022-07-23T11:50:42;37.50;26.51
67354;SHT30;54238;52.278;21.056;2022-07-23T11:53:11;37.35;27.11
67354;SHT30;54238;52.278;21.056;2022-07-23T11:55:39;37.64;27.13
67354;SHT30;54238;52.278;21.056;2022-07-23T11:58:06;37.88;26.43
67354;SHT30;54238;52.278;21.056;2022-07-23T12:00:39;37.85;26.42
67354;SHT30;54238;52.278;21.056;2022-07-23T12:03:10;37.87;26.88
67354;SHT30;54238;52.278;21.056;2022-07-23T12:05:40;38.12;27.04
67354;SHT30;54238;52.278;21.056;2022-07-23T12:08:09;38.40;26.36
67354;SHT30;54238;52.278;21.056;2022-07-23T12:10:44;38.51;26.41
67354;SHT30;54238;52.278;21.056;2022-07-23T12:13:13;38.70;26.48
67354;SHT30;54238;52.278;21.056;2022-07-23T12:16:02;38.97;26.73
67354;SHT30;54238;52.278;21.056;2022-07-23T12:18:31;39.20;25.64
67354;SHT30;54238;52.278;21.056;2022-07-23T12:21:02;39.29;25.52
67354;SHT30;54238;52.278;21.056;2022-07-23T12:23:35;39.31;25.36
67354;SHT30;54238;52.278;21.056;2022-07-23T12:26:06;39.27;25.55
67354;SHT30;54238;52.278;21.056;2022-07-23T12:28:40;39.45;25.56
67354;SHT30;54238;52.278;21.056;2022-07-23T12:31:25;39.34;25.10
67354;SHT30;54238;52.278;21.056;2022-07-23T12:33:56;39.18;25.16
67354;SHT30;54238;52.278;21.056;2022-07-23T12:36:23;39.09;25.29
67354;SHT30;54238;52.278;21.056;2022-07-23T12:39:07;38.86;25.10
67354;SHT30;54238;52.278;21.056;2022-07-23T12:41:51;38.65;25.56
67354;SHT30;54238;52.278;21.056;2022-07-23T12:44:20;38.56;26.03
67354;SHT30;54238;52.278;21.056;2022-07-23T12:46:54;38.63;26.37
67354;SHT30;54238;52.278;21.056;2022-07-23T12:49:26;38.90;26.68
67354;SHT30;54238;52.278;21.056;2022-07-23T12:51:56;39.35;26.05
67354;SHT30;54238;52.278;21.056;2022-07-23T12:54:28;39.70;25.04
67354;SHT30;54238;52.278;21.056;2022-07-23T12:57:01;39.99;24.50
67354;SHT30;54238;52.278;21.056;2022-07-23T12:59:30;40.06;24.39
67354;SHT30;54238;52.278;21.056;2022-07-23T13:02:00;40.35;24.24
67354;SHT30;54238;52.278;21.056;2022-07-23T13:04:29;40.49;23.44
67354;SHT30;54238;52.278;21.056;2022-07-23T13:07:02;40.35;23.38
67354;SHT30;54238;52.278;21.056;2022-07-23T13:09:36;40.29;23.87
67354;SHT30;54238;52.278;21.056;2022-07-23T13:12:03;40.42;24.16
67354;SHT30;54238;52.278;21.056;2022-07-23T13:14:32;40.46;23.92
67354;SHT30;54238;52.278;21.056;2022-07-23T13:16:59;40.41;24.34
67354;SHT30;54238;52.278;21.056;2022-07-23T13:19:26;40.28;24.09
67354;SHT30;54238;52.278;21.056;2022-07-23T13:21:56;40.12;23.83
67354;SHT30;54238;52.278;21.056;2022-07-23T13:24:30;39.84;23.99
67354;SHT30;54238;52.278;21.056;2022-07-23T13:27:03;39.54;24.37
67354;SHT30;54238;52.278;21.056;2022-07-23T13:29:34;39.09;24.34
67354;SHT30;54238;52.278;21.056;2022-07-23T13:32:06;38.53;24.89
67354;SHT30;54238;52.278;21.056;2022-07-23T13:34:33;38.08;25.35
67354;SHT30;54238;52.278;21.056;2022-07-23T13:37:00;37.79;25.95
67354;SHT30;54238;52.278;21.056;2022-07-23T13:39:27;37.55;26.43
67354;SHT30;54238;52.278;21.056;2022-07-23T13:41:55;37.27;26.54
67354;SHT30;54238;52.278;21.056;2022-07-23T13:44:23;37.13;26.65
67354;SHT30;54238;52.278;21.056;2022-07-23T13:46:51;37.14;27.60
67354;SHT30;54238;52.278;21.056;2022-07-23T13:49:18;37.08;26.99
67354;SHT30;54238;52.278;21.056;2022-07-23T13:51:48;36.98;26.92
67354;SHT30;54238;52.278;21.056;2022-07-23T13:54:17;37.04;26.96
67354;SHT30;54238;52.278;21.056;2022-07-23T13:56:44;36.87;26.98
67354;SHT30;54238;52.278;21.056;2022-07-23T13:59:10;36.62;27.18
67354;SHT30;54238;52.278;21.056;2022-07-23T14:01:45;36.42;27.43
67354;SHT30;54238;52.278;21.056;2022-07-23T14:04:15;36.20;27.68
67354;SHT30;54238;52.278;21.056;2022-07-23T14:06:42;35.88;27.89
67354;SHT30;54238;52.278;21.056;2022-07-23T14:09:09;35.54;28.22
67354;SHT30;54238;52.278;21.056;2022-07-23T14:11:40;35.27;28.50
67354;SHT30;54238;52.278;21.056;2022-07-23T14:14:07;35.00;28.95
67354;SHT30;54238;52.278;21.056;2022-07-23T14:16:34;34.72;29.57
67354;SHT30;54238;52.278;21.056;2022-07-23T14:19:01;34.52;29.87
67354;SHT30;54238;52.278;21.056;2022-07-23T14:21:31;34.24;30.07
67354;SHT30;54238;52.278;21.056;2022-07-23T14:23:58;34.00;30.18
67354;SHT30;54238;52.278;21.056;2022-07-23T14:26:29;33.80;30.52
67354;SHT30;54238;52.278;21.056;2022-07-23T14:29:01;33.62;30.90
67354;SHT30;54238;52.278;21.056;2022-07-23T14:31:30;33.49;31.17
67354;SHT30;54238;52.278;21.056;2022-07-23T14:34:00;33.34;31.40
67354;SHT30;54238;52.278;21.056;2022-07-23T14:36:27;33.15;31.56
67354;SHT30;54238;52.278;21.056;2022-07-23T14:38:56;33.00;31.85
67354;SHT30;54238;52.278;21.056;2022-07-23T14:41:37;32.86;32.10
67354;SHT30;54238;52.278;21.056;2022-07-23T14:44:09;32.73;32.40
67354;SHT30;54238;52.278;21.056;2022-07-23T14:46:36;32.62;32.67
67354;SHT30;54238;52.278;21.056;2022-07-23T14:49:04;32.44;34.25
67354;SHT30;54238;52.278;21.056;2022-07-23T14:51:33;31.68;39.57
67354;SHT30;54238;52.278;21.056;2022-07-23T14:54:00;30.67;42.77
67354;SHT30;54238;52.278;21.056;2022-07-23T14:56:28;29.74;45.84
67354;SHT30;54238;52.278;21.056;2022-07-23T14:59:02;28.91;47.79
67354;SHT30;54238;52.278;21.056;2022-07-23T15:01:34;28.26;50.65
67354;SHT30;54238;52.278;21.056;2022-07-23T15:04:04;27.61;53.89
67354;SHT30;54238;52.278;21.056;2022-07-23T15:06:37;26.89;57.93
67354;SHT30;54238;52.278;21.056;2022-07-23T15:09:07;26.10;61.08
67354;SHT30;54238;52.278;21.056;2022-07-23T15:11:38;25.38;64.46
67354;SHT30;54238;52.278;21.056;2022-07-23T15:14:05;24.75;67.04
67354;SHT30;54238;52.278;21.056;2022-07-23T15:16:39;24.25;68.60
67354;SHT30;54238;52.278;21.056;2022-07-23T15:19:08;23.85;69.56
67354;SHT30;54238;52.278;21.056;2022-07-23T15:21:35;23.57;69.93
67354;SHT30;54238;52.278;21.056;2022-07-23T15:24:09;23.34;70.56
67354;SHT30;54238;52.278;21.056;2022-07-23T15:26:41;23.18;71.57
67354;SHT30;54238;52.278;21.056;2022-07-23T15:29:13;23.06;72.15
67354;SHT30;54238;52.278;21.056;2022-07-23T15:31:41;22.94;73.15
67354;SHT30;54238;52.278;21.056;2022-07-23T15:34:08;22.82;73.90
67354;SHT30;54238;52.278;21.056;2022-07-23T15:36:35;22.71;74.16
67354;SHT30;54238;52.278;21.056;2022-07-23T15:39:05;22.66;74.25
67354;SHT30;54238;52.278;21.056;2022-07-23T15:41:40;22.61;74.77
67354;SHT30;54238;52.278;21.056;2022-07-23T15:44:10;22.58;75.18
67354;SHT30;54238;52.278;21.056;2022-07-23T15:46:39;22.54;75.33
67354;SHT30;54238;52.278;21.056;2022-07-23T15:49:06;22.51;75.48
67354;SHT30;54238;52.278;21.056;2022-07-23T15:51:34;22.48;75.66
67354;SHT30;54238;52.278;21.056;2022-07-23T15:54:01;22.45;75.34
67354;SHT30;54238;52.278;21.056;2022-07-23T15:56:31;22.45;75.39
67354;SHT30;54238;52.278;21.056;2022-07-23T15:59:00;22.42;75.31
67354;SHT30;54238;52.278;21.056;2022-07-23T16:01:32;22.43;74.74
67354;SHT30;54238;52.278;21.056;2022-07-23T16:03:59;22.43;74.68
67354;SHT30;54238;52.278;21.056;2022-07-23T16:06:26;22.43;74.44
67354;SHT30;54238;52.278;21.056;2022-07-23T16:09:01;22.40;74.21
67354;SHT30;54238;52.278;21.056;2022-07-23T16:11:32;22.37;74.21